Time;durP1;ratioP1;P1;durP2;ratioP2;P2;SDS_P1;SDS_P2;PMS_P1;PMS_P2;Temp;Humidity;BMP_temperature;BMP_pressure;BME280_temperature;BME280_humidity;BME280_pressure;Samples;Min_cycle;Max_cycle;Signal;HPM_P1;HPM_P2
2022/04/06 00:00:46;;;;;;;17.05;3.92;;;11.20;99.90;;;;;;5054330;28;20167;-82
2022/04/06 00:03:11;;;;;;;18.40;4.18;;;11.10;99.90;;;;;;5053197;28;20624;-82
2022/04/06 00:05:37;;;;;;;8.10;2.55;;;11.00;99.90;;;;;;5052560;28;20206;-81
2022/04/06 00:08:03;;;;;;;8.65;2.85;;;11.00;99.90;;;;;;5053618;28;20194;-81
2022/04/06 00:10:31;;;;;;;9.73;3.35;;;11.00;99.90;;;;;;5053915;28;20167;-80
2022/04/06 00:12:57;;;;;;;15.63;3.78;;;11.00;99.90;;;;;;5052909;28;20648;-78
2022/04/06 00:15:23;;;;;;;12.68;3.50;;;11.00;99.90;;;;;;5053616;28;20199;-81
2022/04/06 00:17:49;;;;;;;13.80;3.80;;;11.10;99.90;;;;;;5053725;28;20187;-79
2022/04/06 00:20:15;;;;;;;19.88;4.88;;;11.20;99.90;;;;;;5053543;28;20174;-79
2022/04/06 00:22:41;;;;;;;10.05;2.28;;;11.00;99.90;;;;;;5053267;28;20163;-82
2022/04/06 00:25:07;;;;;;;18.88;2.75;;;11.00;99.90;;;;;;5054038;28;20171;-80
2022/04/06 00:27:33;;;;;;;13.82;3.25;;;11.10;99.90;;;;;;5053611;28;20525;-85
2022/04/06 00:29:59;;;;;;;8.70;2.67;;;11.10;99.90;;;;;;5053465;28;20163;-78
2022/04/06 00:32:25;;;;;;;7.82;2.47;;;11.20;99.90;;;;;;5053349;28;20167;-85
2022/04/06 00:37:35;;;;;;;16.67;3.67;;;11.10;99.90;;;;;;5053618;28;20256;-79
2022/04/06 00:40:01;;;;;;;18.35;3.97;;;11.10;99.90;;;;;;5053638;28;20689;-79
2022/04/06 00:42:26;;;;;;;9.45;3.45;;;11.10;99.90;;;;;;5053522;28;20701;-78
2022/04/06 00:44:52;;;;;;;14.38;3.10;;;11.20;99.90;;;;;;5053107;28;20174;-80
2022/04/06 00:47:18;;;;;;;9.13;2.45;;;11.20;99.90;;;;;;5052952;28;20186;-80
2022/04/06 00:49:43;;;;;;;16.33;3.60;;;11.10;99.90;;;;;;5051785;28;20171;-82
2022/04/06 00:52:09;;;;;;;11.13;2.85;;;11.00;99.90;;;;;;5053457;28;20167;-81
2022/04/06 00:54:37;;;;;;;11.57;3.30;;;11.00;99.90;;;;;;5053628;28;20163;-79
2022/04/06 00:57:03;;;;;;;8.98;2.63;;;11.00;99.90;;;;;;5052969;28;20194;-80
2022/04/06 00:59:30;;;;;;;11.80;3.00;;;11.10;99.90;;;;;;5053318;28;20190;-79
2022/04/06 01:01:57;;;;;;;13.10;2.83;;;11.00;99.90;;;;;;5053069;28;20562;-81
2022/04/06 01:04:23;;;;;;;13.40;2.50;;;11.00;99.90;;;;;;5053810;28;20173;-79
2022/04/06 01:06:49;;;;;;;18.55;4.18;;;11.10;99.90;;;;;;5053667;28;20250;-82
2022/04/06 01:09:21;;;;;;;15.57;3.25;;;11.10;99.90;;;;;;5053282;28;20194;-83
2022/04/06 01:11:51;;;;;;;15.98;3.40;;;11.10;99.90;;;;;;5052584;28;20190;-78
2022/04/06 01:14:19;;;;;;;12.73;2.42;;;11.10;99.90;;;;;;5052985;28;20163;-78
2022/04/06 01:17:08;;;;;;;14.70;2.95;;;11.10;99.90;;;;;;5053277;28;20237;-78
2022/04/06 01:19:37;;;;;;;15.57;3.15;;;10.90;99.90;;;;;;5052674;28;20203;-80
2022/04/06 01:22:17;;;;;;;23.77;3.03;;;10.90;99.90;;;;;;5053066;28;20170;-82
2022/04/06 01:24:44;;;;;;;20.52;3.78;;;10.80;99.90;;;;;;5052871;28;20170;-78
2022/04/06 01:27:10;;;;;;;27.85;3.90;;;10.80;99.90;;;;;;5052751;28;20163;-78
2022/04/06 01:29:36;;;;;;;11.60;3.38;;;10.90;99.90;;;;;;5052879;28;20195;-78
2022/04/06 01:32:24;;;;;;;14.57;3.20;;;10.80;99.90;;;;;;5053153;28;20159;-79
2022/04/06 01:34:53;;;;;;;12.63;2.58;;;10.90;99.90;;;;;;5052285;28;20536;-82
2022/04/06 01:37:18;;;;;;;13.93;2.60;;;10.90;99.90;;;;;;5050978;28;20183;-78
2022/04/06 01:39:46;;;;;;;10.82;2.70;;;10.90;99.90;;;;;;5051908;28;20229;-79
2022/04/06 01:42:16;;;;;;;8.30;2.58;;;10.80;99.90;;;;;;5053879;28;20182;-83
2022/04/06 01:44:46;;;;;;;23.17;3.20;;;10.70;99.90;;;;;;5066949;28;20195;-84
2022/04/06 01:47:15;;;;;;;11.27;2.75;;;10.70;99.90;;;;;;5067713;28;20225;-79
2022/04/06 01:52:27;;;;;;;12.73;3.40;;;10.80;99.90;;;;;;5057499;28;20269;-77
2022/04/06 01:55:02;;;;;;;11.30;2.50;;;10.90;99.90;;;;;;5052318;28;20171;-77
2022/04/06 01:57:29;;;;;;;16.10;2.67;;;10.80;99.90;;;;;;5052042;28;20179;-81
2022/04/06 01:59:55;;;;;;;11.95;3.15;;;10.80;99.90;;;;;;5052347;28;20194;-77
2022/04/06 02:02:22;;;;;;;11.43;2.70;;;10.90;99.90;;;;;;5051140;28;20602;-83
2022/04/06 02:04:48;;;;;;;6.97;2.72;;;10.80;99.90;;;;;;5052515;28;20254;-78
2022/04/06 02:07:14;;;;;;;8.68;3.00;;;10.70;99.90;;;;;;5052442;28;20250;-78
2022/04/06 02:09:40;;;;;;;6.72;2.28;;;10.70;99.90;;;;;;5052229;28;20195;-77
2022/04/06 02:12:07;;;;;;;10.02;3.05;;;10.80;99.90;;;;;;5052158;28;20174;-78
2022/04/06 02:14:33;;;;;;;14.85;3.22;;;10.80;99.90;;;;;;5054756;28;20167;-79
2022/04/06 02:17:00;;;;;;;8.05;2.78;;;10.90;99.90;;;;;;5059080;28;20278;-78
2022/04/06 02:19:26;;;;;;;8.77;3.17;;;11.00;99.90;;;;;;5074794;28;20186;-78
2022/04/06 02:21:52;;;;;;;12.52;3.05;;;11.00;99.90;;;;;;5054031;28;20195;-78
2022/04/06 02:24:19;;;;;;;12.63;2.58;;;10.90;99.90;;;;;;5057548;28;20167;-81
2022/04/06 02:26:45;;;;;;;19.90;3.00;;;10.90;99.90;;;;;;5068842;28;20174;-81
2022/04/06 02:29:12;;;;;;;10.65;2.85;;;10.80;99.90;;;;;;5061632;28;20266;-80
2022/04/06 02:31:38;;;;;;;15.32;4.05;;;10.80;99.90;;;;;;5061591;28;20596;-78
2022/04/06 02:34:04;;;;;;;12.25;3.38;;;10.70;99.90;;;;;;5063865;28;20189;-78
2022/04/06 02:36:31;;;;;;;7.30;2.47;;;10.80;99.90;;;;;;5061227;28;20210;-79
2022/04/06 02:38:57;;;;;;;14.95;3.22;;;10.80;99.90;;;;;;5061592;28;20187;-79
2022/04/06 02:41:24;;;;;;;14.40;2.83;;;10.70;99.90;;;;;;5064697;28;20167;-78
2022/04/06 02:43:50;;;;;;;7.70;2.88;;;10.70;99.90;;;;;;5063352;28;20163;-85
2022/04/06 02:46:16;;;;;;;13.48;3.05;;;10.80;99.90;;;;;;5062077;28;20175;-79
2022/04/06 02:48:41;;;;;;;9.07;2.45;;;10.70;99.90;;;;;;5066103;28;20179;-79
2022/04/06 02:51:07;;;;;;;12.23;2.80;;;10.70;99.90;;;;;;5068188;28;20216;-79
2022/04/06 02:53:34;;;;;;;12.07;2.80;;;10.70;99.90;;;;;;5065511;28;20163;-80
2022/04/06 02:55:59;;;;;;;11.50;2.53;;;10.80;99.90;;;;;;5063456;28;20214;-79
2022/04/06 02:58:25;;;;;;;10.65;2.50;;;10.80;99.90;;;;;;5062266;28;20179;-82
2022/04/06 03:00:51;;;;;;;11.60;3.17;;;10.70;99.90;;;;;;5063563;28;20247;-79
2022/04/06 03:03:17;;;;;;;10.48;2.83;;;10.70;99.90;;;;;;5061465;28;20151;-79
2022/04/06 03:05:43;;;;;;;10.38;3.03;;;10.70;99.90;;;;;;5062759;28;20910;-80
2022/04/06 03:08:08;;;;;;;8.48;2.72;;;10.70;99.90;;;;;;5066201;28;20211;-78
2022/04/06 03:10:34;;;;;;;9.05;3.05;;;10.70;99.90;;;;;;5062225;28;20171;-79
2022/04/06 03:13:00;;;;;;;8.50;2.20;;;10.70;99.90;;;;;;5057252;28;20166;-78
2022/04/06 03:15:26;;;;;;;7.43;2.50;;;10.70;99.90;;;;;;5060416;28;20195;-78
2022/04/06 03:17:51;;;;;;;8.32;2.28;;;10.70;99.90;;;;;;5060712;28;20577;-82
2022/04/06 03:20:18;;;;;;;11.70;2.92;;;10.60;99.90;;;;;;5061612;28;20177;-80
2022/04/06 03:22:44;;;;;;;7.65;2.47;;;10.50;99.90;;;;;;5059994;28;20222;-82
2022/04/06 03:25:10;;;;;;;10.77;2.85;;;10.50;99.90;;;;;;5062486;28;20850;-85
2022/04/06 03:27:36;;;;;;;7.40;2.13;;;10.60;99.90;;;;;;5062577;28;20195;-81
2022/04/06 03:30:12;;;;;;;13.13;2.97;;;10.70;99.90;;;;;;5061817;28;20533;-80
2022/04/06 03:32:39;;;;;;;8.48;2.45;;;10.80;99.90;;;;;;5060480;28;20257;-78
2022/04/06 03:35:07;;;;;;;13.63;2.60;;;10.70;99.90;;;;;;5059410;28;20201;-81
2022/04/06 03:37:33;;;;;;;17.83;2.45;;;10.70;99.90;;;;;;5058874;28;20644;-80
2022/04/06 03:39:59;;;;;;;5.15;1.73;;;10.70;99.90;;;;;;5058955;28;20175;-79
2022/04/06 03:42:25;;;;;;;10.60;2.63;;;10.70;99.90;;;;;;5059682;28;20202;-80
2022/04/06 03:44:51;;;;;;;8.90;2.15;;;10.90;99.90;;;;;;5056804;28;20225;-78
2022/04/06 03:47:16;;;;;;;6.38;2.08;;;10.80;99.90;;;;;;5053628;28;20178;-78
2022/04/06 03:49:42;;;;;;;16.67;2.40;;;10.90;99.90;;;;;;5052592;28;20218;-78
2022/04/06 03:52:08;;;;;;;11.43;2.58;;;10.80;99.90;;;;;;5054078;28;20531;-78
2022/04/06 03:54:34;;;;;;;13.48;2.05;;;10.80;99.90;;;;;;5054174;28;20170;-83
2022/04/06 03:57:00;;;;;;;4.80;1.70;;;10.70;99.90;;;;;;5059818;28;20653;-79
2022/04/06 03:59:26;;;;;;;16.30;3.10;;;10.70;99.90;;;;;;5054156;28;20189;-82
2022/04/06 04:01:53;;;;;;;9.88;2.60;;;10.60;99.90;;;;;;5052587;28;20223;-84
2022/04/06 04:04:20;;;;;;;13.90;2.80;;;10.50;99.90;;;;;;5061677;28;20170;-79
2022/04/06 04:06:45;;;;;;;7.32;2.60;;;10.60;99.90;;;;;;5058476;28;20182;-77
2022/04/06 04:09:11;;;;;;;7.05;2.53;;;10.50;99.90;;;;;;5069350;28;20195;-78
2022/04/06 04:11:38;;;;;;;15.25;3.00;;;10.50;99.90;;;;;;5068094;28;20164;-79
2022/04/06 04:14:04;;;;;;;11.57;2.97;;;10.40;99.90;;;;;;5060526;28;20170;-84
2022/04/06 04:16:30;;;;;;;11.68;2.92;;;10.50;99.90;;;;;;5065498;28;20213;-79
2022/04/06 04:18:55;;;;;;;12.85;2.95;;;10.50;99.90;;;;;;5061290;28;20274;-79
2022/04/06 04:21:36;;;;;;;11.13;2.85;;;10.50;99.90;;;;;;5063894;28;20206;-79
2022/04/06 04:24:04;;;;;;;7.97;2.35;;;10.50;99.90;;;;;;5064546;28;20250;-83
2022/04/06 04:26:31;;;;;;;7.15;2.70;;;10.50;99.90;;;;;;5054796;28;20168;-79
2022/04/06 04:28:57;;;;;;;9.77;2.78;;;10.50;99.90;;;;;;5052399;28;20191;-79
2022/04/06 04:31:23;;;;;;;13.95;3.13;;;10.40;99.90;;;;;;5053300;28;20568;-79
2022/04/06 04:33:49;;;;;;;6.32;2.42;;;10.40;99.90;;;;;;5051739;28;20266;-80
2022/04/06 04:36:16;;;;;;;8.82;2.60;;;10.30;99.90;;;;;;5053020;28;20628;-80
2022/04/06 04:38:42;;;;;;;8.82;2.80;;;10.40;99.90;;;;;;5053087;28;20195;-86
2022/04/06 04:41:08;;;;;;;11.23;3.10;;;10.30;99.90;;;;;;5053094;28;20804;-79
2022/04/06 04:43:35;;;;;;;11.55;2.40;;;10.30;99.90;;;;;;5052854;28;20166;-80
2022/04/06 04:46:01;;;;;;;5.05;2.20;;;10.40;99.90;;;;;;5052548;28;20170;-79
2022/04/06 04:48:26;;;;;;;7.97;3.15;;;10.30;99.90;;;;;;5052652;28;20671;-83
2022/04/06 04:50:52;;;;;;;8.68;2.58;;;10.30;99.90;;;;;;5052980;28;20171;-81
2022/04/06 04:53:19;;;;;;;5.82;2.47;;;10.40;99.90;;;;;;5068828;28;20171;-79
2022/04/06 04:55:49;;;;;;;13.73;2.40;;;10.40;99.90;;;;;;5067901;28;20300;-80
2022/04/06 04:58:15;;;;;;;10.93;2.50;;;10.40;99.90;;;;;;5073193;28;20190;-78
2022/04/06 05:00:41;;;;;;;14.82;2.50;;;10.40;99.90;;;;;;5066347;28;20174;-79
2022/04/06 05:03:08;;;;;;;9.38;2.00;;;10.40;99.90;;;;;;5061273;28;20164;-79
2022/04/06 05:05:39;;;;;;;18.63;2.70;;;10.50;99.90;;;;;;5060613;28;20189;-79
2022/04/06 05:08:06;;;;;;;7.78;2.35;;;10.40;99.90;;;;;;5059745;28;20167;-82
2022/04/06 05:10:34;;;;;;;5.13;2.03;;;10.30;99.90;;;;;;5065076;28;20245;-79
2022/04/06 05:13:01;;;;;;;9.57;2.50;;;10.30;99.90;;;;;;5056319;28;20563;-79
2022/04/06 05:15:27;;;;;;;8.55;2.35;;;10.40;99.90;;;;;;5060892;28;20203;-80
2022/04/06 05:17:53;;;;;;;9.38;2.75;;;10.40;99.90;;;;;;5060897;28;20189;-78
2022/04/06 05:20:18;;;;;;;14.13;1.95;;;10.30;99.90;;;;;;5058724;28;20249;-78
2022/04/06 05:22:45;;;;;;;13.52;2.15;;;10.30;99.90;;;;;;5056601;28;20167;-82
2022/04/06 05:25:11;;;;;;;8.75;2.50;;;10.20;99.90;;;;;;5058503;28;20171;-80
2022/04/06 05:27:53;;;;;;;10.30;2.25;;;10.20;99.90;;;;;;5066367;28;20201;-79
2022/04/06 05:30:21;;;;;;;5.22;1.67;;;10.20;99.90;;;;;;5064191;28;20546;-79
2022/04/06 05:32:50;;;;;;;5.18;1.98;;;10.10;99.90;;;;;;5058766;28;20221;-78
2022/04/06 05:35:18;;;;;;;4.80;2.30;;;10.10;99.90;;;;;;5058462;28;20238;-79
2022/04/06 05:37:45;;;;;;;6.88;2.28;;;10.10;99.90;;;;;;5058917;28;20186;-84
2022/04/06 05:40:13;;;;;;;8.00;2.08;;;10.20;99.90;;;;;;5061054;28;20243;-81
2022/04/06 05:42:38;;;;;;;3.70;1.50;;;10.20;99.90;;;;;;5063064;28;20160;-83
2022/04/06 05:45:06;;;;;;;4.68;1.67;;;10.30;99.90;;;;;;5058427;28;20266;-84
2022/04/06 05:47:32;;;;;;;11.60;2.33;;;10.30;99.90;;;;;;5057454;28;20175;-79
2022/04/06 05:49:58;;;;;;;8.50;1.88;;;10.20;99.90;;;;;;5043904;28;20631;-79
2022/04/06 05:52:26;;;;;;;5.85;1.55;;;10.20;99.90;;;;;;5055498;28;20294;-81
2022/04/06 05:54:54;;;;;;;11.23;2.53;;;10.20;99.90;;;;;;5041045;28;20222;-80
2022/04/06 05:57:20;;;;;;;4.30;1.48;;;10.30;99.90;;;;;;5061097;28;20269;-83
2022/04/06 05:59:50;;;;;;;15.73;2.25;;;10.30;99.90;;;;;;5062375;28;20172;-81
2022/04/06 06:02:16;;;;;;;2.30;1.70;;;10.40;99.90;;;;;;5066703;28;20193;-83
2022/04/06 06:04:45;;;;;;;6.60;1.40;;;10.50;99.90;;;;;;5064279;28;20697;-80
2022/04/06 06:07:12;;;;;;;6.13;1.60;;;10.40;99.90;;;;;;5070595;28;20168;-78
2022/04/06 06:09:38;;;;;;;5.07;1.38;;;10.50;99.90;;;;;;5074383;28;20205;-82
2022/04/06 06:12:04;;;;;;;6.03;1.90;;;10.50;99.90;;;;;;5072855;28;20171;-84
2022/04/06 06:14:29;;;;;;;7.43;1.60;;;10.50;99.90;;;;;;5075953;28;20525;-78
2022/04/06 06:17:00;;;;;;;8.13;1.48;;;10.50;99.90;;;;;;5045701;28;20215;-78
2022/04/06 06:19:26;;;;;;;5.53;2.10;;;10.50;99.90;;;;;;5063458;28;20202;-78
2022/04/06 06:21:52;;;;;;;11.70;2.20;;;10.50;99.90;;;;;;5056416;28;20165;-80
2022/04/06 06:24:18;;;;;;;5.43;1.27;;;10.60;99.90;;;;;;5055818;28;20171;-79
2022/04/06 06:26:44;;;;;;;5.78;2.00;;;10.60;99.90;;;;;;5055925;28;20180;-84
2022/04/06 06:29:11;;;;;;;2.40;1.77;;;10.70;99.90;;;;;;5055835;28;20187;-80
2022/04/06 06:31:37;;;;;;;11.23;1.98;;;10.70;99.90;;;;;;5054471;28;20521;-83
2022/04/06 06:34:04;;;;;;;10.68;1.50;;;10.90;99.90;;;;;;5055623;28;20178;-79
2022/04/06 06:36:30;;;;;;;8.65;1.55;;;10.90;99.90;;;;;;5055580;28;20210;-80
2022/04/06 06:38:55;;;;;;;8.90;2.97;;;10.90;99.90;;;;;;5055518;28;20205;-79
2022/04/06 06:41:22;;;;;;;14.00;1.33;;;10.80;99.90;;;;;;5055215;28;20568;-80
2022/04/06 06:43:50;;;;;;;5.55;1.75;;;10.90;99.90;;;;;;5055396;28;20659;-78
2022/04/06 06:46:17;;;;;;;6.80;1.48;;;10.90;99.90;;;;;;5055898;28;20171;-78
2022/04/06 06:48:43;;;;;;;3.90;1.25;;;10.80;99.90;;;;;;5053985;28;20198;-83
2022/04/06 06:51:09;;;;;;;5.13;1.30;;;10.90;99.90;;;;;;5056666;28;20175;-80
2022/04/06 06:53:35;;;;;;;8.45;1.48;;;10.90;99.90;;;;;;5056040;28;20160;-87
2022/04/06 06:56:01;;;;;;;3.10;1.58;;;10.80;99.90;;;;;;5055119;28;20337;-82
2022/04/06 06:58:26;;;;;;;4.47;1.23;;;10.90;99.90;;;;;;5056998;28;20686;-79
2022/04/06 07:00:52;;;;;;;11.57;2.00;;;11.10;99.90;;;;;;5057327;28;20638;-78
2022/04/06 07:03:17;;;;;;;3.53;1.45;;;11.00;99.90;;;;;;5058322;28;20163;-80
2022/04/06 07:05:48;;;;;;;7.05;2.10;;;10.90;99.90;;;;;;5066701;28;20194;-78
2022/04/06 07:08:14;;;;;;;4.55;1.35;;;10.80;99.90;;;;;;5065185;28;20213;-77
2022/04/06 07:10:47;;;;;;;4.72;1.45;;;10.60;99.90;;;;;;5067634;28;20164;-78
2022/04/06 07:13:15;;;;;;;4.70;1.40;;;10.60;99.90;;;;;;5066236;28;20156;-77
2022/04/06 07:15:41;;;;;;;7.63;1.58;;;10.60;99.90;;;;;;5065348;28;20203;-76
2022/04/06 07:18:11;;;;;;;3.28;1.20;;;10.80;99.90;;;;;;5064162;28;20214;-86
2022/04/06 07:20:37;;;;;;;12.35;2.50;;;10.90;99.90;;;;;;5065059;28;20186;-83
2022/04/06 07:23:04;;;;;;;9.32;1.83;;;10.90;99.90;;;;;;5065421;28;20189;-82
2022/04/06 07:25:29;;;;;;;6.85;1.63;;;11.00;99.90;;;;;;5078483;28;20162;-81
2022/04/06 07:27:55;;;;;;;4.35;1.27;;;11.00;99.90;;;;;;5078120;28;20198;-79
2022/04/06 07:30:21;;;;;;;11.52;1.13;;;10.90;99.90;;;;;;5078490;28;20152;-81
2022/04/06 07:32:47;;;;;;;4.25;1.30;;;10.90;99.90;;;;;;5078275;28;20175;-79
2022/04/06 07:35:12;;;;;;;6.00;1.55;;;10.90;99.90;;;;;;5077134;28;20187;-78
2022/04/06 07:37:40;;;;;;;8.10;1.67;;;10.90;99.90;;;;;;5073875;28;20202;-80
2022/04/06 07:40:10;;;;;;;3.13;1.77;;;11.10;99.90;;;;;;5076616;28;20165;-80
2022/04/06 07:42:37;;;;;;;11.45;1.77;;;11.10;99.90;;;;;;5065000;28;20167;-79
2022/04/06 07:45:08;;;;;;;4.18;1.35;;;11.20;99.90;;;;;;5053944;28;20167;-79
2022/04/06 07:47:35;;;;;;;7.28;1.45;;;11.20;99.90;;;;;;5054465;28;20183;-80
2022/04/06 07:50:03;;;;;;;6.40;1.23;;;11.30;99.90;;;;;;5054469;28;20284;-83
2022/04/06 07:52:29;;;;;;;4.32;1.52;;;11.30;99.90;;;;;;5054131;28;20166;-81
2022/04/06 07:54:55;;;;;;;3.08;1.23;;;11.40;99.90;;;;;;5053839;28;20682;-81
2022/04/06 07:57:25;;;;;;;9.35;1.63;;;11.10;99.90;;;;;;5053896;28;20292;-84
2022/04/06 07:59:52;;;;;;;2.60;1.17;;;11.30;99.90;;;;;;5054239;28;20151;-84
2022/04/06 08:02:17;;;;;;;7.68;1.23;;;11.30;99.90;;;;;;5053998;28;20221;-79
2022/04/06 08:04:43;;;;;;;4.20;0.90;;;11.50;99.90;;;;;;5052817;28;20171;-79
2022/04/06 08:07:08;;;;;;;2.03;1.73;;;11.60;99.90;;;;;;5053487;28;20201;-79
2022/04/06 08:09:35;;;;;;;1.42;0.93;;;11.50;99.90;;;;;;5052050;28;20219;-81
2022/04/06 08:12:01;;;;;;;3.35;1.95;;;11.50;99.90;;;;;;5053836;28;20167;-78
2022/04/06 08:14:27;;;;;;;3.78;1.05;;;11.50;99.90;;;;;;5053235;28;20155;-84
2022/04/06 08:16:55;;;;;;;5.60;1.70;;;11.60;99.90;;;;;;5052986;28;20302;-80
2022/04/06 08:19:24;;;;;;;4.07;0.90;;;11.80;99.90;;;;;;5052226;28;20680;-83
2022/04/06 08:21:51;;;;;;;8.13;1.00;;;11.90;99.90;;;;;;5052426;28;20551;-79
2022/04/06 08:24:17;;;;;;;2.28;1.20;;;12.00;99.90;;;;;;5052149;28;20159;-80
2022/04/06 08:26:43;;;;;;;7.75;1.13;;;12.00;99.90;;;;;;5053183;28;20175;-79
2022/04/06 08:29:09;;;;;;;2.55;1.15;;;12.00;99.90;;;;;;5053373;28;20187;-84
2022/04/06 08:31:35;;;;;;;2.95;1.45;;;12.00;99.90;;;;;;5055099;28;20560;-86
2022/04/06 08:34:01;;;;;;;5.75;1.15;;;12.00;99.90;;;;;;5055060;28;20171;-85
2022/04/06 08:36:26;;;;;;;10.18;1.50;;;12.00;99.90;;;;;;5048587;28;20215;-83
2022/04/06 08:38:52;;;;;;;2.45;1.10;;;12.10;99.90;;;;;;5033296;28;20623;-78
2022/04/06 08:41:20;;;;;;;7.00;1.33;;;12.20;99.90;;;;;;5034905;28;20172;-78
2022/04/06 08:43:46;;;;;;;3.55;1.60;;;12.10;99.90;;;;;;5034218;28;20167;-83
2022/04/06 08:46:12;;;;;;;9.90;1.25;;;12.10;99.90;;;;;;5052098;28;20175;-85
2022/04/06 08:48:38;;;;;;;4.75;1.35;;;12.10;99.90;;;;;;5050402;28;20240;-80
2022/04/06 08:51:08;;;;;;;5.85;1.10;;;12.20;99.90;;;;;;5052544;28;20202;-80
2022/04/06 08:53:39;;;;;;;4.68;1.13;;;12.30;99.90;;;;;;5049713;28;20678;-78
2022/04/06 08:56:06;;;;;;;2.45;1.20;;;12.40;99.90;;;;;;5051053;28;20211;-79
2022/04/06 08:58:32;;;;;;;7.28;1.40;;;12.50;99.90;;;;;;5046610;28;20221;-78
2022/04/06 09:00:58;;;;;;;9.30;1.40;;;12.50;99.90;;;;;;5049399;28;20214;-80
2022/04/06 09:03:24;;;;;;;2.83;1.40;;;12.50;99.90;;;;;;5050900;28;20168;-79
2022/04/06 09:06:01;;;;;;;5.38;1.10;;;12.60;99.90;;;;;;5051252;28;20195;-83
2022/04/06 09:08:42;;;;;;;8.25;1.35;;;12.60;99.90;;;;;;5049421;28;20511;-78
2022/04/06 09:11:12;;;;;;;4.40;1.40;;;12.90;99.90;;;;;;5050400;28;20175;-81
2022/04/06 09:13:41;;;;;;;2.90;1.35;;;13.10;99.90;;;;;;5051618;28;20167;-84
2022/04/06 09:16:09;;;;;;;2.60;1.45;;;13.40;99.90;;;;;;5037236;28;20203;-80
2022/04/06 09:18:44;;;;;;;4.20;1.40;;;13.30;99.90;;;;;;5051921;28;20186;-78
2022/04/06 09:21:14;;;;;;;2.72;1.13;;;13.30;99.90;;;;;;5049655;28;20730;-79
2022/04/06 09:23:39;;;;;;;2.95;0.95;;;13.30;99.90;;;;;;5051526;28;20179;-80
2022/04/06 09:26:13;;;;;;;4.60;0.98;;;13.30;99.90;;;;;;5051958;28;20217;-78
2022/04/06 09:28:47;;;;;;;4.30;1.20;;;13.40;99.90;;;;;;5050907;28;20249;-81
2022/04/06 09:31:19;;;;;;;4.88;1.00;;;13.30;99.90;;;;;;5052190;28;20167;-78
2022/04/06 09:34:00;;;;;;;4.25;1.40;;;13.20;99.90;;;;;;5050926;28;20216;-79
2022/04/06 09:36:28;;;;;;;4.90;1.73;;;13.20;99.90;;;;;;5053181;28;20211;-78
2022/04/06 09:38:55;;;;;;;6.88;1.70;;;12.90;99.90;;;;;;5055494;28;20179;-79
2022/04/06 09:41:21;;;;;;;7.50;1.33;;;13.10;99.90;;;;;;5055960;28;20202;-78
2022/04/06 09:43:48;;;;;;;2.60;1.30;;;13.30;99.90;;;;;;5053596;28;20182;-78
2022/04/06 09:49:06;;;;;;;1.70;1.50;;;13.40;99.90;;;;;;5054377;28;20220;-78
2022/04/06 09:51:32;;;;;;;2.75;1.23;;;13.20;99.90;;;;;;5054599;28;20175;-79
2022/04/06 09:54:00;;;;;;;3.22;1.42;;;13.20;99.90;;;;;;5054457;28;21034;-78
2022/04/06 09:56:26;;;;;;;5.80;1.80;;;13.30;99.90;;;;;;5055772;28;20287;-77
2022/04/06 09:58:53;;;;;;;4.68;2.00;;;13.10;99.90;;;;;;5058162;28;20617;-80
2022/04/06 10:01:18;;;;;;;4.25;1.35;;;13.00;99.90;;;;;;5063588;28;20241;-78
2022/04/06 10:03:52;;;;;;;6.88;1.60;;;13.10;99.90;;;;;;5070548;28;20171;-78
2022/04/06 10:06:19;;;;;;;10.82;2.08;;;12.90;99.90;;;;;;5059136;28;20177;-79
2022/04/06 10:08:45;;;;;;;3.63;2.00;;;13.00;99.90;;;;;;5053878;28;20210;-79
2022/04/06 10:11:12;;;;;;;2.40;1.95;;;13.10;99.90;;;;;;5058253;28;20167;-82
2022/04/06 10:13:39;;;;;;;10.73;1.85;;;13.10;99.90;;;;;;5057525;28;20663;-78
2022/04/06 10:16:10;;;;;;;8.02;2.33;;;13.00;99.90;;;;;;5054143;28;20206;-82
2022/04/06 10:18:36;;;;;;;3.95;1.98;;;13.20;99.90;;;;;;5055653;28;20183;-84
2022/04/06 10:21:28;;;;;;;3.17;1.42;;;13.10;99.90;;;;;;5055876;28;20248;-83
2022/04/06 10:24:36;;;;;;;7.07;2.20;;;13.00;99.90;;;;;;5054014;28;20171;-85
2022/04/06 10:27:23;;;;;;;4.80;1.50;;;13.00;99.90;;;;;;5056058;28;20646;-79
2022/04/06 10:30:14;;;;;;;2.88;2.05;;;12.70;99.90;;;;;;5056745;28;20538;-80
2022/04/06 10:32:41;;;;;;;3.47;1.50;;;12.70;99.90;;;;;;5058875;28;20171;-80
2022/04/06 10:35:27;;;;;;;2.42;1.95;;;12.80;99.90;;;;;;5058699;28;20159;-80
2022/04/06 10:38:12;;;;;;;4.32;1.80;;;12.90;99.90;;;;;;5071643;28;20195;-79
2022/04/06 10:40:47;;;;;;;9.13;2.03;;;12.90;99.90;;;;;;5072656;28;20159;-80
2022/04/06 10:43:50;;;;;;;3.42;2.00;;;13.00;99.90;;;;;;5071955;28;20150;-80
2022/04/06 10:46:18;;;;;;;7.18;1.60;;;13.10;99.90;;;;;;5001633;28;20173;-80
2022/04/06 10:49:12;;;;;;;4.32;2.53;;;13.10;99.90;;;;;;5046063;28;20199;-79
2022/04/06 10:51:39;;;;;;;3.53;1.90;;;12.90;99.90;;;;;;5059082;28;20183;-80
2022/04/06 10:54:30;;;;;;;4.70;2.00;;;12.90;99.90;;;;;;5059076;28;20191;-79
2022/04/06 10:57:00;;;;;;;5.70;2.08;;;12.80;99.90;;;;;;5049125;28;20370;-78
2022/04/06 10:59:29;;;;;;;6.75;1.67;;;12.60;99.90;;;;;;5057066;28;20215;-78
2022/04/06 11:02:16;;;;;;;2.55;1.63;;;12.70;99.90;;;;;;5060181;28;20246;-79
2022/04/06 11:04:42;;;;;;;5.45;1.90;;;12.70;99.90;;;;;;5064241;28;20166;-78
2022/04/06 11:07:08;;;;;;;8.60;2.10;;;12.60;99.90;;;;;;5060945;28;20164;-84
2022/04/06 11:12:23;;;;;;;4.80;2.47;;;13.00;99.90;;;;;;5058024;28;20178;-83
2022/04/06 11:15:10;;;;;;;5.90;2.08;;;13.00;99.90;;;;;;5057931;28;20668;-80
2022/04/06 11:17:44;;;;;;;3.70;1.92;;;13.00;99.90;;;;;;5055528;28;20207;-87
2022/04/06 11:20:15;;;;;;;3.08;1.80;;;13.10;99.90;;;;;;5055412;28;20209;-79
2022/04/06 11:22:54;;;;;;;2.70;1.63;;;12.90;99.90;;;;;;5054524;28;20511;-81
2022/04/06 11:25:26;;;;;;;6.03;3.20;;;12.80;99.90;;;;;;5054641;28;20771;-79
2022/04/06 11:27:54;;;;;;;2.20;1.77;;;12.90;99.90;;;;;;5055650;28;20187;-84
2022/04/06 11:30:22;;;;;;;2.90;1.90;;;12.90;99.90;;;;;;5055770;28;20981;-82
2022/04/06 11:32:59;;;;;;;3.15;1.85;;;12.80;99.90;;;;;;5053297;28;20168;-77
2022/04/06 11:35:30;;;;;;;4.68;1.60;;;12.90;99.90;;;;;;5053393;28;20174;-77
2022/04/06 11:37:56;;;;;;;2.20;1.60;;;12.90;99.90;;;;;;5054563;28;20187;-77
2022/04/06 11:40:24;;;;;;;4.55;2.05;;;12.90;99.90;;;;;;5057262;28;20166;-77
2022/04/06 11:42:51;;;;;;;6.80;2.03;;;13.00;99.90;;;;;;5060269;28;20577;-79
2022/04/06 11:45:31;;;;;;;2.25;1.40;;;13.00;99.90;;;;;;5061068;28;20167;-85
2022/04/06 11:48:04;;;;;;;3.85;1.70;;;13.00;99.90;;;;;;5058920;28;20210;-85
2022/04/06 11:50:36;;;;;;;6.93;2.05;;;12.70;99.90;;;;;;5057536;28;20226;-78
2022/04/06 11:53:10;;;;;;;3.72;1.92;;;12.60;99.90;;;;;;5055008;28;20171;-78
2022/04/06 11:55:47;;;;;;;10.90;2.55;;;12.60;99.90;;;;;;5054545;28;20195;-81
2022/04/06 11:58:36;;;;;;;3.60;1.60;;;12.60;99.90;;;;;;5054085;28;20588;-78
2022/04/06 12:01:06;;;;;;;3.55;2.00;;;12.50;99.90;;;;;;5063175;28;20167;-82
2022/04/06 12:03:33;;;;;;;2.80;1.67;;;12.50;99.90;;;;;;5057971;28;20167;-78
2022/04/06 12:06:01;;;;;;;2.70;2.05;;;12.50;99.90;;;;;;5061603;28;20538;-85
2022/04/06 12:08:31;;;;;;;3.20;1.48;;;12.60;99.90;;;;;;5052411;28;20191;-80
2022/04/06 12:10:57;;;;;;;4.50;2.00;;;12.70;99.90;;;;;;5054514;28;20167;-80
2022/04/06 12:13:28;;;;;;;3.38;1.70;;;12.50;99.90;;;;;;5053058;28;20167;-78
2022/04/06 12:15:55;;;;;;;8.68;1.45;;;12.60;99.90;;;;;;5053626;28;20218;-79
2022/04/06 12:18:22;;;;;;;3.88;1.83;;;12.60;99.90;;;;;;5054419;28;20184;-78
2022/04/06 12:20:49;;;;;;;4.20;3.45;;;12.50;99.90;;;;;;5053776;28;20634;-82
2022/04/06 12:23:16;;;;;;;3.15;1.80;;;12.50;99.90;;;;;;5054859;28;20168;-79
2022/04/06 12:25:42;;;;;;;6.10;2.97;;;12.50;99.90;;;;;;5052255;28;20179;-84
2022/04/06 12:28:12;;;;;;;3.35;1.88;;;12.50;99.90;;;;;;5055261;28;20214;-80
2022/04/06 12:31:00;;;;;;;4.72;1.95;;;12.50;99.90;;;;;;5059621;28;20167;-80
2022/04/06 12:33:41;;;;;;;2.08;1.73;;;12.70;99.90;;;;;;5056261;28;20178;-79
2022/04/06 12:36:19;;;;;;;4.65;1.98;;;12.80;99.90;;;;;;5057755;28;20217;-80
2022/04/06 12:39:10;;;;;;;5.13;1.70;;;12.80;99.90;;;;;;5062153;28;20193;-80
2022/04/06 12:41:59;;;;;;;7.78;1.92;;;12.70;99.90;;;;;;5067365;28;20202;-80
2022/04/06 12:44:28;;;;;;;2.53;1.90;;;12.70;99.90;;;;;;5059679;28;20193;-78
2022/04/06 12:46:53;;;;;;;11.80;1.98;;;12.70;99.90;;;;;;5038585;28;20597;-79
2022/04/06 12:49:42;;;;;;;4.47;1.92;;;12.80;99.90;;;;;;5056764;28;20187;-81
2022/04/06 12:52:25;;;;;;;9.68;1.98;;;12.70;99.90;;;;;;5056633;28;20163;-81
2022/04/06 12:55:05;;;;;;;6.18;1.63;;;12.80;99.90;;;;;;5056883;28;20262;-79
2022/04/06 12:57:34;;;;;;;2.72;1.60;;;12.80;99.90;;;;;;5057461;28;20216;-82
2022/04/06 13:00:21;;;;;;;5.57;1.60;;;12.80;99.90;;;;;;5058538;28;20163;-81
2022/04/06 13:02:51;;;;;;;7.95;2.20;;;12.80;99.90;;;;;;5058402;28;20167;-79